Hovedside
METAR-TAF:

METAR-TAF

Lufthavner :

Svalbard lufthavn. Longyear

Longyearbyen, Norge

breddegrad: 78-15N, lengdegrad: 015-28E, høyde over havet: 2 m

Gjeldene værobservasjon

Denne rapporten ble laget for 58 minutter siden, klokken 17:50 UTC
Vind 19 kt fra Nord-nordvest
Temperatur -3°C
Luftfuktighet 63%
Trykk 1006 hPa
Sikt 10 km eller mer
Spredte skyer i en høyde av 4900 ft

METAR: ENSB 191750Z 34019KT 9999 SCT049 M03/M09 Q1006 RMK WIND 1400FT 34018KT

Tid: 19:48 (18:48 UTC)

Varsel

Varsel gyldig fra 19. klokken 18 UTC til 20. klokken 18 UTC
Vind 18 kt fra Nord-nordvest
Sikt 10 km eller mer
Få skyer i en høyde av 1200 ft
Brutte skyer i en høyde av 3000 ft
Midlertidig
fra 19. klokken 18 UTC til 20. klokken 06 UTC
Vind 15 kt fra Nord med vindkast opp mot 25 kt
Blir
fra 20. klokken 14 UTC til 20. klokken 17 UTC
Vind 8 kt fra Sør

TAF: ENSB 1918/2018 34018KT 9999 FEW012 BKN030 TEMPO 1918/2006 35015G25KT BECMG 2014/2017 18008KT

Værobservasjoner og værvarsel for over 4000 flyplasser (METAR- og TAF-rapporter).

Tilgjengelige stasjoner er representert av de røde og gule prikkene på kartet.

Hold musepekeren over prikken for å se navnet på stasjonen.

Klikk så for å se værobservasjoner og -varsler.

For å forandre kartet kan du klikke på den grønne knappen med svart kryss for å zoome inn, på den grønne knappen med strek for å zoome ut, eller på de grønne pilene for å se tilstøtende kart.


METAR-TAF: